Littlevine, Virginia
Current Conditions -  °F | °C
As of 1:55 AM on Friday 28 Nov 2014 (Local Time) from KHLX Reporting Station
Overcast Overcast  
Wind Chill: 14°   Ceiling: 2900
Heat Index: 25°   Visibility: 10mi
Dew Point: 16°   Wind: 13mph
Humidity: 69%   Direction: 310°NW
Pressure: 30.19"   Gusts: NA
Location:  36.737°N, 80.6935°W
Report Text: KHLX 280655Z AUTO 31011KT 10SM BKN029 OVC036 M04/M09 A3019 RMK AO2 T10381088
Loading
Personal Weather Stations






























Interactive Weather Map New forecast layout! Learn more

10-Day Weather Forecast

Advertisements
Track Severe Weather on mobile